Terminal Aerodrome Forecast
Issued by NWS

Home | Current Version | Previous Version | Text Only | Print | Product List | Glossary On
Versions: 1 2 3 4 5 6 7 8 9 10 11 12 13 14 15
000
FTUS46 KSEW 191137
TAFBFI
TAF
KBFI 191137Z 1912/2012 16008KT P6SM -SHRA SCT022 BKN035 BKN060
      TEMPO 1914/1918 BKN022 OVC035
     FM200300 16008KT P6SM SCT035 BKN060=

USA.gov is the U.S. government's official web portal to all federal, state and local government web resources and services.